sensor_id;sensor_type;location;lat;lon;timestamp;P1;durP1;ratioP1;P2;durP2;ratioP2
16330;SDS011;8275;48.206;16.340;2023-05-02T00:00:13;3.92;;;3.25;;
16330;SDS011;8275;48.206;16.340;2023-05-02T00:02:42;3.92;;;3.63;;
16330;SDS011;8275;48.206;16.340;2023-05-02T00:05:11;3.65;;;3.35;;
16330;SDS011;8275;48.206;16.340;2023-05-02T00:07:39;5.28;;;4.78;;
16330;SDS011;8275;48.206;16.340;2023-05-02T00:10:09;4.97;;;4.57;;
16330;SDS011;8275;48.206;16.340;2023-05-02T00:12:38;4.75;;;4.35;;
16330;SDS011;8275;48.206;16.340;2023-05-02T00:15:07;4.72;;;4.32;;
16330;SDS011;8275;48.206;16.340;2023-05-02T00:17:38;4.55;;;4.15;;
16330;SDS011;8275;48.206;16.340;2023-05-02T00:20:08;4.47;;;4.18;;
16330;SDS011;8275;48.206;16.340;2023-05-02T00:22:38;4.32;;;4.03;;
16330;SDS011;8275;48.206;16.340;2023-05-02T00:25:07;5.75;;;5.25;;
16330;SDS011;8275;48.206;16.340;2023-05-02T00:27:41;5.05;;;4.65;;
16330;SDS011;8275;48.206;16.340;2023-05-02T00:30:12;5.72;;;5.20;;
16330;SDS011;8275;48.206;16.340;2023-05-02T00:32:41;4.80;;;4.50;;
16330;SDS011;8275;48.206;16.340;2023-05-02T00:35:09;4.63;;;4.22;;
16330;SDS011;8275;48.206;16.340;2023-05-02T00:37:38;4.93;;;4.60;;
16330;SDS011;8275;48.206;16.340;2023-05-02T00:40:07;5.03;;;4.63;;
16330;SDS011;8275;48.206;16.340;2023-05-02T00:42:38;10.35;;;9.07;;
16330;SDS011;8275;48.206;16.340;2023-05-02T00:45:07;5.03;;;4.63;;
16330;SDS011;8275;48.206;16.340;2023-05-02T00:47:37;4.95;;;4.25;;
16330;SDS011;8275;48.206;16.340;2023-05-02T00:50:06;6.15;;;5.65;;
16330;SDS011;8275;48.206;16.340;2023-05-02T00:52:36;7.15;;;6.47;;
16330;SDS011;8275;48.206;16.340;2023-05-02T00:55:04;6.22;;;5.65;;
16330;SDS011;8275;48.206;16.340;2023-05-02T00:57:35;5.07;;;4.68;;
16330;SDS011;8275;48.206;16.340;2023-05-02T01:00:04;6.45;;;5.93;;
16330;SDS011;8275;48.206;16.340;2023-05-02T01:02:37;6.00;;;5.43;;
16330;SDS011;8275;48.206;16.340;2023-05-02T01:05:16;6.55;;;6.05;;
16330;SDS011;8275;48.206;16.340;2023-05-02T01:07:59;5.13;;;4.63;;
16330;SDS011;8275;48.206;16.340;2023-05-02T01:10:42;6.63;;;6.05;;
16330;SDS011;8275;48.206;16.340;2023-05-02T01:13:18;6.88;;;6.20;;
16330;SDS011;8275;48.206;16.340;2023-05-02T01:15:49;6.80;;;6.25;;
16330;SDS011;8275;48.206;16.340;2023-05-02T01:18:20;9.07;;;8.18;;
16330;SDS011;8275;48.206;16.340;2023-05-02T01:20:53;10.40;;;7.80;;
16330;SDS011;8275;48.206;16.340;2023-05-02T01:23:27;8.18;;;7.38;;
16330;SDS011;8275;48.206;16.340;2023-05-02T01:26:10;7.97;;;7.38;;
16330;SDS011;8275;48.206;16.340;2023-05-02T01:28:56;8.52;;;7.55;;
16330;SDS011;8275;48.206;16.340;2023-05-02T01:31:28;7.97;;;7.38;;
16330;SDS011;8275;48.206;16.340;2023-05-02T01:33:59;7.60;;;7.00;;
16330;SDS011;8275;48.206;16.340;2023-05-02T01:36:30;7.88;;;7.28;;
16330;SDS011;8275;48.206;16.340;2023-05-02T01:39:00;8.45;;;7.50;;
16330;SDS011;8275;48.206;16.340;2023-05-02T01:41:31;7.43;;;6.82;;
16330;SDS011;8275;48.206;16.340;2023-05-02T01:44:02;7.75;;;7.13;;
16330;SDS011;8275;48.206;16.340;2023-05-02T01:46:33;7.35;;;6.75;;
16330;SDS011;8275;48.206;16.340;2023-05-02T01:49:06;8.40;;;7.60;;
16330;SDS011;8275;48.206;16.340;2023-05-02T01:51:35;8.65;;;7.88;;
16330;SDS011;8275;48.206;16.340;2023-05-02T01:54:11;7.68;;;6.93;;
16330;SDS011;8275;48.206;16.340;2023-05-02T01:56:42;7.30;;;6.60;;
16330;SDS011;8275;48.206;16.340;2023-05-02T01:59:14;7.05;;;6.43;;
16330;SDS011;8275;48.206;16.340;2023-05-02T02:01:46;7.65;;;6.95;;
16330;SDS011;8275;48.206;16.340;2023-05-02T02:04:16;6.30;;;5.80;;
16330;SDS011;8275;48.206;16.340;2023-05-02T02:06:47;5.35;;;4.85;;
16330;SDS011;8275;48.206;16.340;2023-05-02T02:09:22;6.80;;;6.20;;
16330;SDS011;8275;48.206;16.340;2023-05-02T02:11:51;5.70;;;5.30;;
16330;SDS011;8275;48.206;16.340;2023-05-02T02:14:32;5.97;;;5.47;;
16330;SDS011;8275;48.206;16.340;2023-05-02T02:17:04;8.48;;;6.60;;
16330;SDS011;8275;48.206;16.340;2023-05-02T02:19:39;6.03;;;5.57;;
16330;SDS011;8275;48.206;16.340;2023-05-02T02:22:09;6.13;;;5.60;;
16330;SDS011;8275;48.206;16.340;2023-05-02T02:24:42;6.03;;;5.53;;
16330;SDS011;8275;48.206;16.340;2023-05-02T02:27:12;6.00;;;5.50;;
16330;SDS011;8275;48.206;16.340;2023-05-02T02:29:43;5.40;;;4.90;;
16330;SDS011;8275;48.206;16.340;2023-05-02T02:32:11;6.50;;;6.03;;
16330;SDS011;8275;48.206;16.340;2023-05-02T02:34:40;6.55;;;5.95;;
16330;SDS011;8275;48.206;16.340;2023-05-02T02:37:11;6.63;;;5.55;;
16330;SDS011;8275;48.206;16.340;2023-05-02T02:39:46;5.72;;;5.32;;
16330;SDS011;8275;48.206;16.340;2023-05-02T02:42:24;5.75;;;5.15;;
16330;SDS011;8275;48.206;16.340;2023-05-02T02:45:12;5.35;;;4.85;;
16330;SDS011;8275;48.206;16.340;2023-05-02T02:47:57;6.75;;;6.05;;
16330;SDS011;8275;48.206;16.340;2023-05-02T02:50:40;5.82;;;5.32;;
16330;SDS011;8275;48.206;16.340;2023-05-02T02:53:24;6.35;;;5.82;;
16330;SDS011;8275;48.206;16.340;2023-05-02T02:56:01;5.35;;;4.95;;
16330;SDS011;8275;48.206;16.340;2023-05-02T02:58:37;6.53;;;5.95;;
16330;SDS011;8275;48.206;16.340;2023-05-02T03:01:19;6.28;;;5.75;;
16330;SDS011;8275;48.206;16.340;2023-05-02T03:03:50;6.38;;;5.88;;
16330;SDS011;8275;48.206;16.340;2023-05-02T03:06:19;5.78;;;5.28;;
16330;SDS011;8275;48.206;16.340;2023-05-02T03:08:48;5.40;;;5.00;;
16330;SDS011;8275;48.206;16.340;2023-05-02T03:11:16;5.85;;;5.10;;
16330;SDS011;8275;48.206;16.340;2023-05-02T03:13:45;7.20;;;6.55;;
16330;SDS011;8275;48.206;16.340;2023-05-02T03:19:06;5.10;;;4.70;;
16330;SDS011;8275;48.206;16.340;2023-05-02T03:21:35;6.00;;;5.53;;
16330;SDS011;8275;48.206;16.340;2023-05-02T03:24:03;6.18;;;5.78;;
16330;SDS011;8275;48.206;16.340;2023-05-02T03:26:32;5.80;;;5.30;;
16330;SDS011;8275;48.206;16.340;2023-05-02T03:29:00;5.40;;;4.93;;
16330;SDS011;8275;48.206;16.340;2023-05-02T03:31:29;8.02;;;5.85;;
16330;SDS011;8275;48.206;16.340;2023-05-02T03:33:59;6.60;;;6.00;;
16330;SDS011;8275;48.206;16.340;2023-05-02T03:36:27;7.03;;;6.43;;
16330;SDS011;8275;48.206;16.340;2023-05-02T03:38:55;6.10;;;5.60;;
16330;SDS011;8275;48.206;16.340;2023-05-02T03:41:24;5.93;;;5.43;;
16330;SDS011;8275;48.206;16.340;2023-05-02T03:43:52;6.85;;;6.35;;
16330;SDS011;8275;48.206;16.340;2023-05-02T03:46:21;15.18;;;7.07;;
16330;SDS011;8275;48.206;16.340;2023-05-02T03:48:49;7.50;;;6.88;;
16330;SDS011;8275;48.206;16.340;2023-05-02T03:51:19;7.63;;;6.93;;
16330;SDS011;8275;48.206;16.340;2023-05-02T03:53:48;6.60;;;6.03;;
16330;SDS011;8275;48.206;16.340;2023-05-02T03:56:16;7.07;;;6.47;;
16330;SDS011;8275;48.206;16.340;2023-05-02T03:58:46;6.93;;;6.18;;
16330;SDS011;8275;48.206;16.340;2023-05-02T04:01:15;7.30;;;6.70;;
16330;SDS011;8275;48.206;16.340;2023-05-02T04:03:43;10.25;;;7.18;;
16330;SDS011;8275;48.206;16.340;2023-05-02T04:06:12;7.35;;;6.72;;
16330;SDS011;8275;48.206;16.340;2023-05-02T04:08:42;6.60;;;6.00;;
16330;SDS011;8275;48.206;16.340;2023-05-02T04:11:10;6.78;;;5.97;;
16330;SDS011;8275;48.206;16.340;2023-05-02T04:13:39;7.57;;;6.97;;
16330;SDS011;8275;48.206;16.340;2023-05-02T04:16:07;8.10;;;7.45;;
16330;SDS011;8275;48.206;16.340;2023-05-02T04:18:36;7.13;;;6.63;;
16330;SDS011;8275;48.206;16.340;2023-05-02T04:21:06;6.28;;;5.78;;
16330;SDS011;8275;48.206;16.340;2023-05-02T04:23:35;7.55;;;6.95;;
16330;SDS011;8275;48.206;16.340;2023-05-02T04:26:05;7.43;;;6.72;;
16330;SDS011;8275;48.206;16.340;2023-05-02T04:28:34;7.18;;;6.57;;
16330;SDS011;8275;48.206;16.340;2023-05-02T04:31:02;7.53;;;6.80;;
16330;SDS011;8275;48.206;16.340;2023-05-02T04:33:31;7.75;;;7.05;;
16330;SDS011;8275;48.206;16.340;2023-05-02T04:35:59;7.93;;;7.22;;
16330;SDS011;8275;48.206;16.340;2023-05-02T04:38:28;8.18;;;7.47;;
16330;SDS011;8275;48.206;16.340;2023-05-02T04:40:56;7.30;;;6.60;;
16330;SDS011;8275;48.206;16.340;2023-05-02T04:43:35;7.97;;;7.07;;
16330;SDS011;8275;48.206;16.340;2023-05-02T04:46:05;7.70;;;7.03;;
16330;SDS011;8275;48.206;16.340;2023-05-02T04:48:33;8.30;;;7.50;;
16330;SDS011;8275;48.206;16.340;2023-05-02T04:51:02;9.73;;;8.80;;
16330;SDS011;8275;48.206;16.340;2023-05-02T04:53:31;7.93;;;7.20;;
16330;SDS011;8275;48.206;16.340;2023-05-02T04:55:59;8.02;;;7.32;;
16330;SDS011;8275;48.206;16.340;2023-05-02T04:58:28;9.82;;;7.13;;
16330;SDS011;8275;48.206;16.340;2023-05-02T05:00:58;7.25;;;6.65;;
16330;SDS011;8275;48.206;16.340;2023-05-02T05:03:27;7.93;;;7.15;;
16330;SDS011;8275;48.206;16.340;2023-05-02T05:05:56;8.68;;;7.85;;
16330;SDS011;8275;48.206;16.340;2023-05-02T05:08:25;7.53;;;6.82;;
16330;SDS011;8275;48.206;16.340;2023-05-02T05:10:53;10.02;;;6.65;;
16330;SDS011;8275;48.206;16.340;2023-05-02T05:13:22;7.20;;;6.60;;
16330;SDS011;8275;48.206;16.340;2023-05-02T05:15:51;10.85;;;7.00;;
16330;SDS011;8275;48.206;16.340;2023-05-02T05:18:21;8.45;;;7.25;;
16330;SDS011;8275;48.206;16.340;2023-05-02T05:20:50;8.90;;;8.00;;
16330;SDS011;8275;48.206;16.340;2023-05-02T05:23:18;8.07;;;7.40;;
16330;SDS011;8275;48.206;16.340;2023-05-02T05:25:46;12.20;;;7.32;;
16330;SDS011;8275;48.206;16.340;2023-05-02T05:28:15;8.13;;;7.43;;
16330;SDS011;8275;48.206;16.340;2023-05-02T05:30:44;9.13;;;8.23;;
16330;SDS011;8275;48.206;16.340;2023-05-02T05:33:12;8.02;;;7.32;;
16330;SDS011;8275;48.206;16.340;2023-05-02T05:35:42;6.93;;;6.18;;
16330;SDS011;8275;48.206;16.340;2023-05-02T05:38:11;8.52;;;7.75;;
16330;SDS011;8275;48.206;16.340;2023-05-02T05:40:39;8.93;;;8.13;;
16330;SDS011;8275;48.206;16.340;2023-05-02T05:43:07;9.88;;;8.35;;
16330;SDS011;8275;48.206;16.340;2023-05-02T05:45:36;7.60;;;6.95;;
16330;SDS011;8275;48.206;16.340;2023-05-02T05:48:04;8.57;;;7.70;;
16330;SDS011;8275;48.206;16.340;2023-05-02T05:50:34;8.55;;;7.75;;
16330;SDS011;8275;48.206;16.340;2023-05-02T05:53:03;9.48;;;8.68;;
16330;SDS011;8275;48.206;16.340;2023-05-02T05:55:32;8.18;;;7.47;;
16330;SDS011;8275;48.206;16.340;2023-05-02T05:58:02;7.85;;;7.05;;
16330;SDS011;8275;48.206;16.340;2023-05-02T06:00:32;7.68;;;6.95;;
16330;SDS011;8275;48.206;16.340;2023-05-02T06:03:01;8.13;;;7.32;;
16330;SDS011;8275;48.206;16.340;2023-05-02T06:05:34;7.57;;;6.88;;
16330;SDS011;8275;48.206;16.340;2023-05-02T06:08:03;8.07;;;7.30;;
16330;SDS011;8275;48.206;16.340;2023-05-02T06:10:32;8.43;;;7.63;;
16330;SDS011;8275;48.206;16.340;2023-05-02T06:13:00;9.00;;;8.00;;
16330;SDS011;8275;48.206;16.340;2023-05-02T06:15:29;9.00;;;8.10;;
16330;SDS011;8275;48.206;16.340;2023-05-02T06:17:59;7.95;;;7.22;;
16330;SDS011;8275;48.206;16.340;2023-05-02T06:20:27;7.90;;;7.18;;
16330;SDS011;8275;48.206;16.340;2023-05-02T06:22:56;6.78;;;6.18;;
16330;SDS011;8275;48.206;16.340;2023-05-02T06:25:26;7.03;;;6.32;;
16330;SDS011;8275;48.206;16.340;2023-05-02T06:27:54;8.15;;;7.45;;
16330;SDS011;8275;48.206;16.340;2023-05-02T06:30:22;8.73;;;8.02;;
16330;SDS011;8275;48.206;16.340;2023-05-02T06:32:51;9.00;;;8.30;;
16330;SDS011;8275;48.206;16.340;2023-05-02T06:35:20;8.40;;;7.60;;
16330;SDS011;8275;48.206;16.340;2023-05-02T06:37:48;7.63;;;7.03;;
16330;SDS011;8275;48.206;16.340;2023-05-02T06:40:17;8.18;;;7.25;;
16330;SDS011;8275;48.206;16.340;2023-05-02T06:42:47;8.38;;;7.68;;
16330;SDS011;8275;48.206;16.340;2023-05-02T06:45:15;8.48;;;7.72;;
16330;SDS011;8275;48.206;16.340;2023-05-02T06:47:43;8.05;;;7.30;;
16330;SDS011;8275;48.206;16.340;2023-05-02T06:50:12;7.75;;;7.10;;
16330;SDS011;8275;48.206;16.340;2023-05-02T06:52:40;8.48;;;7.68;;
16330;SDS011;8275;48.206;16.340;2023-05-02T06:55:08;7.13;;;6.55;;
16330;SDS011;8275;48.206;16.340;2023-05-02T06:57:37;8.93;;;8.02;;
16330;SDS011;8275;48.206;16.340;2023-05-02T07:00:08;9.52;;;8.52;;
16330;SDS011;8275;48.206;16.340;2023-05-02T07:02:37;9.57;;;8.63;;
16330;SDS011;8275;48.206;16.340;2023-05-02T07:05:06;8.27;;;7.55;;
16330;SDS011;8275;48.206;16.340;2023-05-02T07:07:35;7.50;;;6.88;;
16330;SDS011;8275;48.206;16.340;2023-05-02T07:10:04;7.50;;;6.80;;
16330;SDS011;8275;48.206;16.340;2023-05-02T07:12:34;7.15;;;6.53;;
16330;SDS011;8275;48.206;16.340;2023-05-02T07:15:03;6.95;;;6.32;;
16330;SDS011;8275;48.206;16.340;2023-05-02T07:17:34;7.03;;;6.43;;
16330;SDS011;8275;48.206;16.340;2023-05-02T07:20:03;6.38;;;5.88;;
16330;SDS011;8275;48.206;16.340;2023-05-02T07:22:33;7.50;;;6.75;;
16330;SDS011;8275;48.206;16.340;2023-05-02T07:25:01;9.65;;;6.55;;
16330;SDS011;8275;48.206;16.340;2023-05-02T07:27:31;6.93;;;6.43;;
16330;SDS011;8275;48.206;16.340;2023-05-02T07:29:59;7.65;;;6.85;;
16330;SDS011;8275;48.206;16.340;2023-05-02T07:32:29;6.97;;;6.30;;
16330;SDS011;8275;48.206;16.340;2023-05-02T07:34:59;7.55;;;6.95;;
16330;SDS011;8275;48.206;16.340;2023-05-02T07:37:31;7.55;;;6.85;;
16330;SDS011;8275;48.206;16.340;2023-05-02T07:40:00;7.88;;;7.18;;
16330;SDS011;8275;48.206;16.340;2023-05-02T07:42:30;7.78;;;7.13;;
16330;SDS011;8275;48.206;16.340;2023-05-02T07:44:58;6.95;;;6.35;;
16330;SDS011;8275;48.206;16.340;2023-05-02T07:47:27;7.32;;;6.70;;
16330;SDS011;8275;48.206;16.340;2023-05-02T07:49:55;7.22;;;6.63;;
16330;SDS011;8275;48.206;16.340;2023-05-02T07:52:26;7.00;;;6.50;;
16330;SDS011;8275;48.206;16.340;2023-05-02T07:54:54;6.30;;;5.80;;
16330;SDS011;8275;48.206;16.340;2023-05-02T07:57:22;7.95;;;6.30;;
16330;SDS011;8275;48.206;16.340;2023-05-02T07:59:52;6.60;;;6.03;;
16330;SDS011;8275;48.206;16.340;2023-05-02T08:02:22;6.90;;;6.20;;
16330;SDS011;8275;48.206;16.340;2023-05-02T08:04:51;6.50;;;6.00;;
16330;SDS011;8275;48.206;16.340;2023-05-02T08:07:20;6.22;;;5.65;;
16330;SDS011;8275;48.206;16.340;2023-05-02T08:09:49;6.50;;;5.72;;
16330;SDS011;8275;48.206;16.340;2023-05-02T08:12:18;6.47;;;5.88;;
16330;SDS011;8275;48.206;16.340;2023-05-02T08:14:46;5.38;;;4.97;;
16330;SDS011;8275;48.206;16.340;2023-05-02T08:17:15;5.75;;;5.30;;
16330;SDS011;8275;48.206;16.340;2023-05-02T08:19:43;7.95;;;7.05;;
16330;SDS011;8275;48.206;16.340;2023-05-02T08:22:11;6.25;;;5.75;;
16330;SDS011;8275;48.206;16.340;2023-05-02T08:24:40;7.03;;;6.43;;
16330;SDS011;8275;48.206;16.340;2023-05-02T08:27:10;5.78;;;5.32;;
16330;SDS011;8275;48.206;16.340;2023-05-02T08:29:38;6.78;;;5.88;;
16330;SDS011;8275;48.206;16.340;2023-05-02T08:32:07;7.88;;;6.50;;
16330;SDS011;8275;48.206;16.340;2023-05-02T08:34:35;8.40;;;5.65;;
16330;SDS011;8275;48.206;16.340;2023-05-02T08:37:06;6.10;;;5.05;;
16330;SDS011;8275;48.206;16.340;2023-05-02T08:39:35;6.80;;;6.10;;
16330;SDS011;8275;48.206;16.340;2023-05-02T08:42:05;7.05;;;6.22;;
16330;SDS011;8275;48.206;16.340;2023-05-02T08:44:35;5.65;;;5.15;;
16330;SDS011;8275;48.206;16.340;2023-05-02T08:47:04;6.00;;;5.50;;
16330;SDS011;8275;48.206;16.340;2023-05-02T08:49:33;6.93;;;6.32;;
16330;SDS011;8275;48.206;16.340;2023-05-02T08:52:02;8.32;;;6.07;;
16330;SDS011;8275;48.206;16.340;2023-05-02T08:54:32;6.72;;;6.13;;
16330;SDS011;8275;48.206;16.340;2023-05-02T08:57:03;7.10;;;5.03;;
16330;SDS011;8275;48.206;16.340;2023-05-02T08:59:32;8.13;;;6.05;;
16330;SDS011;8275;48.206;16.340;2023-05-02T09:02:04;11.63;;;5.53;;
16330;SDS011;8275;48.206;16.340;2023-05-02T09:04:51;4.93;;;4.47;;
16330;SDS011;8275;48.206;16.340;2023-05-02T09:07:24;5.82;;;5.32;;
16330;SDS011;8275;48.206;16.340;2023-05-02T09:09:53;4.90;;;4.60;;
16330;SDS011;8275;48.206;16.340;2023-05-02T09:12:23;4.50;;;4.20;;
16330;SDS011;8275;48.206;16.340;2023-05-02T09:17:48;6.50;;;5.07;;
16330;SDS011;8275;48.206;16.340;2023-05-02T09:20:16;5.53;;;5.03;;
16330;SDS011;8275;48.206;16.340;2023-05-02T09:22:48;5.90;;;5.32;;
16330;SDS011;8275;48.206;16.340;2023-05-02T09:25:18;7.78;;;5.15;;
16330;SDS011;8275;48.206;16.340;2023-05-02T09:27:47;7.13;;;5.40;;
16330;SDS011;8275;48.206;16.340;2023-05-02T09:30:18;8.18;;;5.28;;
16330;SDS011;8275;48.206;16.340;2023-05-02T09:32:50;7.18;;;4.82;;
16330;SDS011;8275;48.206;16.340;2023-05-02T09:35:21;5.38;;;4.88;;
16330;SDS011;8275;48.206;16.340;2023-05-02T09:37:50;7.68;;;5.78;;
16330;SDS011;8275;48.206;16.340;2023-05-02T09:40:20;5.75;;;5.28;;
16330;SDS011;8275;48.206;16.340;2023-05-02T09:42:50;6.03;;;5.43;;
16330;SDS011;8275;48.206;16.340;2023-05-02T09:45:19;5.97;;;5.47;;
16330;SDS011;8275;48.206;16.340;2023-05-02T09:47:51;6.38;;;5.78;;
16330;SDS011;8275;48.206;16.340;2023-05-02T09:50:32;7.63;;;5.50;;
16330;SDS011;8275;48.206;16.340;2023-05-02T09:53:03;5.45;;;4.47;;
16330;SDS011;8275;48.206;16.340;2023-05-02T09:55:33;5.22;;;4.82;;
16330;SDS011;8275;48.206;16.340;2023-05-02T09:58:02;6.00;;;5.25;;
16330;SDS011;8275;48.206;16.340;2023-05-02T10:00:38;5.95;;;5.30;;
16330;SDS011;8275;48.206;16.340;2023-05-02T10:03:10;6.20;;;5.70;;
16330;SDS011;8275;48.206;16.340;2023-05-02T10:05:44;7.03;;;6.43;;
16330;SDS011;8275;48.206;16.340;2023-05-02T10:08:13;6.55;;;6.05;;
16330;SDS011;8275;48.206;16.340;2023-05-02T10:10:47;6.20;;;5.53;;
16330;SDS011;8275;48.206;16.340;2023-05-02T10:13:20;6.03;;;5.57;;
16330;SDS011;8275;48.206;16.340;2023-05-02T10:15:57;7.40;;;6.68;;
16330;SDS011;8275;48.206;16.340;2023-05-02T10:18:31;6.85;;;5.88;;
16330;SDS011;8275;48.206;16.340;2023-05-02T10:21:09;7.35;;;6.30;;
16330;SDS011;8275;48.206;16.340;2023-05-02T10:23:40;5.82;;;5.25;;
16330;SDS011;8275;48.206;16.340;2023-05-02T10:26:11;6.75;;;6.15;;
16330;SDS011;8275;48.206;16.340;2023-05-02T10:28:42;7.15;;;6.57;;
16330;SDS011;8275;48.206;16.340;2023-05-02T10:31:11;6.82;;;6.22;;
16330;SDS011;8275;48.206;16.340;2023-05-02T10:33:42;9.07;;;6.90;;
16330;SDS011;8275;48.206;16.340;2023-05-02T10:36:13;6.95;;;6.35;;
16330;SDS011;8275;48.206;16.340;2023-05-02T10:38:42;7.88;;;7.18;;
16330;SDS011;8275;48.206;16.340;2023-05-02T10:41:12;7.72;;;7.03;;
16330;SDS011;8275;48.206;16.340;2023-05-02T10:43:46;7.40;;;6.80;;
16330;SDS011;8275;48.206;16.340;2023-05-02T10:46:28;8.35;;;7.38;;
16330;SDS011;8275;48.206;16.340;2023-05-02T10:49:03;7.85;;;7.20;;
16330;SDS011;8275;48.206;16.340;2023-05-02T10:51:34;8.63;;;7.22;;
16330;SDS011;8275;48.206;16.340;2023-05-02T10:54:25;7.60;;;7.00;;
16330;SDS011;8275;48.206;16.340;2023-05-02T10:57:00;8.15;;;7.38;;
16330;SDS011;8275;48.206;16.340;2023-05-02T10:59:34;7.75;;;7.15;;
16330;SDS011;8275;48.206;16.340;2023-05-02T11:02:04;9.55;;;7.30;;
16330;SDS011;8275;48.206;16.340;2023-05-02T11:05:01;7.35;;;6.72;;
16330;SDS011;8275;48.206;16.340;2023-05-02T11:07:32;7.20;;;6.60;;
16330;SDS011;8275;48.206;16.340;2023-05-02T11:12:59;6.97;;;6.40;;
16330;SDS011;8275;48.206;16.340;2023-05-02T11:18:22;7.78;;;7.07;;
16330;SDS011;8275;48.206;16.340;2023-05-02T11:20:52;6.50;;;6.00;;
16330;SDS011;8275;48.206;16.340;2023-05-02T11:30:06;7.53;;;6.93;;
16330;SDS011;8275;48.206;16.340;2023-05-02T11:35:42;9.25;;;7.13;;
16330;SDS011;8275;48.206;16.340;2023-05-02T11:38:14;9.35;;;7.70;;
16330;SDS011;8275;48.206;16.340;2023-05-02T11:40:51;8.13;;;7.47;;
16330;SDS011;8275;48.206;16.340;2023-05-02T11:43:25;8.15;;;7.35;;
16330;SDS011;8275;48.206;16.340;2023-05-02T11:45:57;8.65;;;7.45;;
16330;SDS011;8275;48.206;16.340;2023-05-02T11:48:28;7.40;;;6.80;;
16330;SDS011;8275;48.206;16.340;2023-05-02T11:50:58;7.63;;;7.03;;
16330;SDS011;8275;48.206;16.340;2023-05-02T11:53:32;7.78;;;7.05;;
16330;SDS011;8275;48.206;16.340;2023-05-02T11:56:06;7.75;;;7.15;;
16330;SDS011;8275;48.206;16.340;2023-05-02T11:58:35;7.22;;;6.53;;
16330;SDS011;8275;48.206;16.340;2023-05-02T12:01:10;7.60;;;7.00;;
16330;SDS011;8275;48.206;16.340;2023-05-02T12:03:40;8.45;;;7.35;;
16330;SDS011;8275;48.206;16.340;2023-05-02T12:06:10;6.88;;;6.32;;
16330;SDS011;8275;48.206;16.340;2023-05-02T12:08:42;8.05;;;7.25;;
16330;SDS011;8275;48.206;16.340;2023-05-02T12:11:12;9.20;;;8.45;;
16330;SDS011;8275;48.206;16.340;2023-05-02T12:13:45;7.78;;;7.10;;
16330;SDS011;8275;48.206;16.340;2023-05-02T12:16:15;7.93;;;7.32;;
16330;SDS011;8275;48.206;16.340;2023-05-02T12:18:45;7.45;;;6.85;;
16330;SDS011;8275;48.206;16.340;2023-05-02T12:21:14;7.20;;;6.60;;
16330;SDS011;8275;48.206;16.340;2023-05-02T12:23:45;7.85;;;7.25;;
16330;SDS011;8275;48.206;16.340;2023-05-02T12:26:17;8.23;;;7.45;;
16330;SDS011;8275;48.206;16.340;2023-05-02T12:28:48;8.40;;;7.70;;
16330;SDS011;8275;48.206;16.340;2023-05-02T12:31:17;7.97;;;7.28;;
16330;SDS011;8275;48.206;16.340;2023-05-02T12:33:46;7.78;;;7.22;;
16330;SDS011;8275;48.206;16.340;2023-05-02T12:36:16;8.35;;;7.43;;
16330;SDS011;8275;48.206;16.340;2023-05-02T12:38:49;8.10;;;7.35;;
16330;SDS011;8275;48.206;16.340;2023-05-02T12:41:29;8.52;;;7.72;;
16330;SDS011;8275;48.206;16.340;2023-05-02T12:43:59;7.93;;;7.32;;
16330;SDS011;8275;48.206;16.340;2023-05-02T12:46:27;10.57;;;7.55;;
16330;SDS011;8275;48.206;16.340;2023-05-02T12:49:00;8.55;;;7.85;;
16330;SDS011;8275;48.206;16.340;2023-05-02T12:51:31;9.73;;;7.05;;
16330;SDS011;8275;48.206;16.340;2023-05-02T12:54:01;7.90;;;7.20;;
16330;SDS011;8275;48.206;16.340;2023-05-02T12:56:37;8.25;;;7.47;;
16330;SDS011;8275;48.206;16.340;2023-05-02T12:59:07;8.73;;;7.95;;
16330;SDS011;8275;48.206;16.340;2023-05-02T13:01:36;8.10;;;7.40;;
16330;SDS011;8275;48.206;16.340;2023-05-02T13:04:04;8.43;;;7.70;;
16330;SDS011;8275;48.206;16.340;2023-05-02T13:06:33;8.50;;;7.70;;
16330;SDS011;8275;48.206;16.340;2023-05-02T13:09:05;7.78;;;7.18;;
16330;SDS011;8275;48.206;16.340;2023-05-02T13:11:33;8.68;;;7.38;;
16330;SDS011;8275;48.206;16.340;2023-05-02T13:14:02;6.90;;;6.38;;
16330;SDS011;8275;48.206;16.340;2023-05-02T13:16:31;6.95;;;6.45;;
16330;SDS011;8275;48.206;16.340;2023-05-02T13:19:02;7.70;;;6.60;;
16330;SDS011;8275;48.206;16.340;2023-05-02T13:21:31;7.93;;;7.18;;
16330;SDS011;8275;48.206;16.340;2023-05-02T13:23:59;7.88;;;7.30;;
16330;SDS011;8275;48.206;16.340;2023-05-02T13:26:30;8.30;;;7.60;;
16330;SDS011;8275;48.206;16.340;2023-05-02T13:28:59;9.05;;;8.05;;
16330;SDS011;8275;48.206;16.340;2023-05-02T13:31:27;7.85;;;7.20;;
16330;SDS011;8275;48.206;16.340;2023-05-02T13:33:56;9.00;;;8.10;;
16330;SDS011;8275;48.206;16.340;2023-05-02T13:36:24;7.70;;;7.10;;
16330;SDS011;8275;48.206;16.340;2023-05-02T13:38:53;8.63;;;7.88;;
16330;SDS011;8275;48.206;16.340;2023-05-02T13:41:21;9.55;;;8.75;;
16330;SDS011;8275;48.206;16.340;2023-05-02T13:43:52;11.57;;;9.18;;
16330;SDS011;8275;48.206;16.340;2023-05-02T13:46:20;10.40;;;9.45;;
16330;SDS011;8275;48.206;16.340;2023-05-02T13:48:49;10.10;;;9.10;;
16330;SDS011;8275;48.206;16.340;2023-05-02T13:51:17;9.60;;;8.90;;
16330;SDS011;8275;48.206;16.340;2023-05-02T13:53:45;9.50;;;8.80;;
16330;SDS011;8275;48.206;16.340;2023-05-02T13:56:14;10.77;;;9.77;;
16330;SDS011;8275;48.206;16.340;2023-05-02T13:58:42;9.32;;;8.55;;
16330;SDS011;8275;48.206;16.340;2023-05-02T14:01:12;8.65;;;7.95;;
16330;SDS011;8275;48.206;16.340;2023-05-02T14:03:40;15.00;;;9.52;;
16330;SDS011;8275;48.206;16.340;2023-05-02T14:06:09;8.90;;;8.15;;
16330;SDS011;8275;48.206;16.340;2023-05-02T14:08:38;8.65;;;7.95;;
16330;SDS011;8275;48.206;16.340;2023-05-02T14:11:06;9.85;;;9.00;;
16330;SDS011;8275;48.206;16.340;2023-05-02T14:13:34;10.25;;;9.38;;
16330;SDS011;8275;48.206;16.340;2023-05-02T14:16:03;9.32;;;8.55;;
16330;SDS011;8275;48.206;16.340;2023-05-02T14:18:34;8.57;;;7.88;;
16330;SDS011;8275;48.206;16.340;2023-05-02T14:21:02;13.38;;;8.35;;
16330;SDS011;8275;48.206;16.340;2023-05-02T14:23:31;10.30;;;9.40;;
16330;SDS011;8275;48.206;16.340;2023-05-02T14:26:00;10.80;;;9.70;;
16330;SDS011;8275;48.206;16.340;2023-05-02T14:28:29;12.27;;;7.93;;
16330;SDS011;8275;48.206;16.340;2023-05-02T14:30:57;9.23;;;8.50;;
16330;SDS011;8275;48.206;16.340;2023-05-02T14:33:26;9.55;;;8.75;;
16330;SDS011;8275;48.206;16.340;2023-05-02T14:35:55;9.85;;;8.95;;
16330;SDS011;8275;48.206;16.340;2023-05-02T14:38:24;15.02;;;10.25;;
16330;SDS011;8275;48.206;16.340;2023-05-02T14:40:52;10.02;;;9.02;;
16330;SDS011;8275;48.206;16.340;2023-05-02T14:43:21;10.57;;;9.65;;
16330;SDS011;8275;48.206;16.340;2023-05-02T14:45:49;11.00;;;10.00;;
16330;SDS011;8275;48.206;16.340;2023-05-02T14:48:18;8.95;;;8.25;;
16330;SDS011;8275;48.206;16.340;2023-05-02T14:50:46;8.75;;;7.95;;
16330;SDS011;8275;48.206;16.340;2023-05-02T14:53:16;12.65;;;10.73;;
16330;SDS011;8275;48.206;16.340;2023-05-02T14:55:45;10.05;;;9.18;;
16330;SDS011;8275;48.206;16.340;2023-05-02T14:58:15;10.45;;;9.43;;
16330;SDS011;8275;48.206;16.340;2023-05-02T15:00:46;9.55;;;8.65;;
16330;SDS011;8275;48.206;16.340;2023-05-02T15:03:17;12.13;;;11.13;;
16330;SDS011;8275;48.206;16.340;2023-05-02T15:05:49;10.13;;;9.23;;
16330;SDS011;8275;48.206;16.340;2023-05-02T15:08:19;9.55;;;8.65;;
16330;SDS011;8275;48.206;16.340;2023-05-02T15:10:48;9.50;;;8.70;;
16330;SDS011;8275;48.206;16.340;2023-05-02T15:13:16;11.20;;;10.20;;
16330;SDS011;8275;48.206;16.340;2023-05-02T15:15:45;10.40;;;9.50;;
16330;SDS011;8275;48.206;16.340;2023-05-02T15:18:14;9.40;;;8.60;;
16330;SDS011;8275;48.206;16.340;2023-05-02T15:20:42;9.98;;;9.15;;
16330;SDS011;8275;48.206;16.340;2023-05-02T15:23:12;9.23;;;8.43;;
16330;SDS011;8275;48.206;16.340;2023-05-02T15:25:42;10.02;;;9.02;;